sensor_id;sensor_type;location;lat;lon;timestamp;pressure;altitude;pressure_sealevel;temperature;humidity
6034;BME280;3045;43.226;27.858;2023-04-01T00:00:57;94695.34;;;10.40;100.00
6034;BME280;3045;43.226;27.858;2023-04-01T00:03:25;90427.06;;;10.40;100.00
6034;BME280;3045;43.226;27.858;2023-04-01T00:05:52;89440.56;;;10.39;100.00
6034;BME280;3045;43.226;27.858;2023-04-01T00:08:20;85170.84;;;10.33;100.00
6034;BME280;3045;43.226;27.858;2023-04-01T00:10:47;82233.66;;;10.40;100.00
6034;BME280;3045;43.226;27.858;2023-04-01T00:13:15;79616.56;;;10.41;100.00
6034;BME280;3045;43.226;27.858;2023-04-01T00:15:43;80928.69;;;10.43;100.00
6034;BME280;3045;43.226;27.858;2023-04-01T00:18:11;83873.66;;;10.42;100.00
6034;BME280;3045;43.226;27.858;2023-04-01T00:20:38;86501.44;;;10.47;100.00
6034;BME280;3045;43.226;27.858;2023-04-01T00:23:05;90752.91;;;10.39;100.00
6034;BME280;3045;43.226;27.858;2023-04-01T00:25:32;94036.75;;;10.39;100.00
6034;BME280;3045;43.226;27.858;2023-04-01T00:27:59;91378.78;;;10.19;100.00
6034;BME280;3045;43.226;27.858;2023-04-01T00:30:28;83867.19;;;10.38;100.00
6034;BME280;3045;43.226;27.858;2023-04-01T00:32:55;78303.69;;;10.37;100.00
6034;BME280;3045;43.226;27.858;2023-04-01T00:35:22;80598.00;;;10.41;100.00
6034;BME280;3045;43.226;27.858;2023-04-01T00:37:49;82548.28;;;10.31;100.00
6034;BME280;3045;43.226;27.858;2023-04-01T00:40:24;86824.06;;;10.43;100.00
6034;BME280;3045;43.226;27.858;2023-04-01T00:42:52;86821.06;;;10.41;100.00
6034;BME280;3045;43.226;27.858;2023-04-01T00:45:39;91067.06;;;10.30;100.00
6034;BME280;3045;43.226;27.858;2023-04-01T00:48:09;94337.03;;;10.22;100.00
6034;BME280;3045;43.226;27.858;2023-04-01T00:50:39;88076.69;;;10.04;100.00
6034;BME280;3045;43.226;27.858;2023-04-01T00:53:08;77283.13;;;10.07;100.00
6034;BME280;3045;43.226;27.858;2023-04-01T00:55:41;67501.31;;;10.12;100.00
6034;BME280;3045;43.226;27.858;2023-04-01T00:58:14;64244.94;;;10.12;100.00
6034;BME280;3045;43.226;27.858;2023-04-01T01:00:45;65191.69;;;9.85;100.00
6034;BME280;3045;43.226;27.858;2023-04-01T01:03:14;63904.56;;;9.98;100.00
6034;BME280;3045;43.226;27.858;2023-04-01T01:06:02;63895.19;;;9.89;100.00
6034;BME280;3045;43.226;27.858;2023-04-01T01:08:41;68130.66;;;9.92;100.00
6034;BME280;3045;43.226;27.858;2023-04-01T01:11:14;73985.88;;;9.82;100.00
6034;BME280;3045;43.226;27.858;2023-04-01T01:13:52;70714.53;;;9.73;100.00
6034;BME280;3045;43.226;27.858;2023-04-01T01:16:27;68422.78;;;9.63;100.00
6034;BME280;3045;43.226;27.858;2023-04-01T01:19:04;64509.13;;;9.56;100.00
6034;BME280;3045;43.226;27.858;2023-04-01T01:21:52;65145.00;;;9.43;100.00
6034;BME280;3045;43.226;27.858;2023-04-01T01:24:40;57013.63;;;9.32;100.00
6034;BME280;3045;43.226;27.858;2023-04-01T01:27:10;53438.09;;;9.22;100.00
6034;BME280;3045;43.226;27.858;2023-04-01T01:30:24;45666.34;;;9.15;100.00
6034;BME280;3045;43.226;27.858;2023-04-01T01:33:14;39195.69;;;8.96;100.00
6034;BME280;3045;43.226;27.858;2023-04-01T01:35:46;34679.94;;;8.90;100.00
6034;BME280;3045;43.226;27.858;2023-04-01T01:38:17;27923.25;;;8.87;100.00
6034;BME280;3045;43.226;27.858;2023-04-01T01:40:47;24067.06;;;8.82;100.00
6034;BME280;3045;43.226;27.858;2023-04-01T01:43:21;21178.34;;;8.79;100.00
6034;BME280;3045;43.226;27.858;2023-04-01T01:45:53;21181.94;;;8.88;100.00
6034;BME280;3045;43.226;27.858;2023-04-01T01:48:23;23758.22;;;9.10;100.00
6034;BME280;3045;43.226;27.858;2023-04-01T01:50:52;25680.00;;;8.99;100.00
6034;BME280;3045;43.226;27.858;2023-04-01T01:53:20;29864.34;;;9.10;100.00
6034;BME280;3045;43.226;27.858;2023-04-01T01:55:48;33715.56;;;8.92;100.00
6034;BME280;3045;43.226;27.858;2023-04-01T01:58:18;38543.59;;;8.86;100.00
6034;BME280;3045;43.226;27.858;2023-04-01T02:00:50;41124.56;;;8.87;100.00
6034;BME280;3045;43.226;27.858;2023-04-01T02:03:21;40788.28;;;8.68;100.00
6034;BME280;3045;43.226;27.858;2023-04-01T02:05:52;42395.84;;;8.61;100.00
6034;BME280;3045;43.226;27.858;2023-04-01T02:08:23;35281.44;;;8.21;100.00
6034;BME280;3045;43.226;27.858;2023-04-01T02:10:56;33676.56;;;8.27;100.00
6034;BME280;3045;43.226;27.858;2023-04-01T02:13:27;26610.03;;;8.29;100.00
6034;BME280;3045;43.226;27.858;2023-04-01T02:16:00;24048.56;;;8.40;100.00
6034;BME280;3045;43.226;27.858;2023-04-01T02:18:30;21488.13;;;8.51;100.00
6034;BME280;3045;43.226;27.858;2023-04-01T02:21:03;20208.88;;;8.58;100.00
6034;BME280;3045;43.226;27.858;2023-04-01T02:23:33;18931.63;;;8.70;100.00
6034;BME280;3045;43.226;27.858;2023-04-01T02:26:04;22456.59;;;8.67;100.00
6034;BME280;3045;43.226;27.858;2023-04-01T02:28:33;26943.78;;;8.55;100.00
6034;BME280;3045;43.226;27.858;2023-04-01T02:31:02;27908.72;;;8.58;100.00
6034;BME280;3045;43.226;27.858;2023-04-01T02:33:29;26953.66;;;8.76;100.00
6034;BME280;3045;43.226;27.858;2023-04-01T02:35:58;29200.94;;;8.72;100.00
6034;BME280;3045;43.226;27.858;2023-04-01T02:38:27;31452.00;;;8.73;100.00
6034;BME280;3045;43.226;27.858;2023-04-01T02:40:58;37883.09;;;8.62;100.00
6034;BME280;3045;43.226;27.858;2023-04-01T02:43:25;44656.00;;;8.62;100.00
6034;BME280;3045;43.226;27.858;2023-04-01T02:45:53;49176.06;;;8.59;100.00
6034;BME280;3045;43.226;27.858;2023-04-01T02:48:20;52071.06;;;8.42;100.00
6034;BME280;3045;43.226;27.858;2023-04-01T02:50:47;53684.88;;;8.38;100.00
6034;BME280;3045;43.226;27.858;2023-04-01T02:53:14;46244.56;;;8.30;100.00
6034;BME280;3045;43.226;27.858;2023-04-01T02:55:43;40121.69;;;8.37;100.00
6034;BME280;3045;43.226;27.858;2023-04-01T02:58:10;36257.41;;;8.38;100.00
6034;BME280;3045;43.226;27.858;2023-04-01T03:00:38;31753.88;;;8.38;100.00
6034;BME280;3045;43.226;27.858;2023-04-01T03:03:05;27582.50;;;8.48;100.00
6034;BME280;3045;43.226;27.858;2023-04-01T03:05:32;22773.50;;;8.58;100.00
6034;BME280;3045;43.226;27.858;2023-04-01T03:07:59;24379.22;;;8.62;100.00
6034;BME280;3045;43.226;27.858;2023-04-01T03:10:26;26623.22;;;8.56;100.00
6034;BME280;3045;43.226;27.858;2023-04-01T03:12:55;28233.03;;;8.64;100.00
6034;BME280;3045;43.226;27.858;2023-04-01T03:15:22;28555.09;;;8.66;100.00
6034;BME280;3045;43.226;27.858;2023-04-01T03:17:49;29838.38;;;8.62;100.00
6034;BME280;3045;43.226;27.858;2023-04-01T03:20:17;29839.19;;;8.63;100.00
6034;BME280;3045;43.226;27.858;2023-04-01T03:22:44;29198.00;;;8.66;100.00
6034;BME280;3045;43.226;27.858;2023-04-01T03:25:12;29835.94;;;8.57;100.00
6034;BME280;3045;43.226;27.858;2023-04-01T03:27:40;28546.50;;;8.49;100.00
6034;BME280;3045;43.226;27.858;2023-04-01T03:30:09;25654.50;;;8.44;100.00
6034;BME280;3045;43.226;27.858;2023-04-01T03:32:36;20844.75;;;8.45;100.00
6034;BME280;3045;43.226;27.858;2023-04-01T03:35:04;18607.00;;;8.58;100.00
6034;BME280;3045;43.226;27.858;2023-04-01T03:37:31;17966.97;;;8.60;100.00
6034;BME280;3045;43.226;27.858;2023-04-01T03:39:58;16684.28;;;8.54;100.00
6034;BME280;3045;43.226;27.858;2023-04-01T03:42:29;16051.84;;;8.79;100.00
6034;BME280;3045;43.226;27.858;2023-04-01T03:44:56;16692.56;;;8.80;100.00
6034;BME280;3045;43.226;27.858;2023-04-01T03:47:25;17970.94;;;8.71;100.00
6034;BME280;3045;43.226;27.858;2023-04-01T03:49:52;17658.47;;;8.95;100.00
6034;BME280;3045;43.226;27.858;2023-04-01T03:52:20;17340.44;;;9.02;100.00
6034;BME280;3045;43.226;27.858;2023-04-01T03:54:47;16699.69;;;9.02;100.00
6034;BME280;3045;43.226;27.858;2023-04-01T03:57:14;15744.38;;;9.20;100.00
6034;BME280;3045;43.226;27.858;2023-04-01T03:59:41;18947.72;;;9.15;100.00
6034;BME280;3045;43.226;27.858;2023-04-01T04:02:08;24397.03;;;9.02;100.00
6034;BME280;3045;43.226;27.858;2023-04-01T04:04:37;28244.34;;;8.87;100.00
6034;BME280;3045;43.226;27.858;2023-04-01T04:07:04;28556.91;;;8.69;100.00
6034;BME280;3045;43.226;27.858;2023-04-01T04:09:31;25993.31;;;8.82;100.00
6034;BME280;3045;43.226;27.858;2023-04-01T04:11:58;22459.97;;;8.76;100.00
6034;BME280;3045;43.226;27.858;2023-04-01T04:14:26;18932.38;;;8.73;100.00
6034;BME280;3045;43.226;27.858;2023-04-01T04:16:53;13803.88;;;8.51;100.00
6034;BME280;3045;43.226;27.858;2023-04-01T04:19:20;9647.56;;;8.43;100.00
6034;BME280;3045;43.226;27.858;2023-04-01T04:21:48;12251.66;;;8.77;100.00
6034;BME280;3045;43.226;27.858;2023-04-01T04:24:16;15002.13;;;8.98;100.00
6034;BME280;3045;43.226;27.858;2023-04-01T04:26:43;15357.09;;;9.22;100.00
6034;BME280;3045;43.226;27.858;2023-04-01T04:29:10;14398.53;;;9.56;100.00
6034;BME280;3045;43.226;27.858;2023-04-01T04:31:37;16864.00;;;9.61;100.00
6034;BME280;3045;43.226;27.858;2023-04-01T04:34:04;24756.53;;;9.87;100.00
6034;BME280;3045;43.226;27.858;2023-04-01T04:36:31;31215.97;;;10.27;100.00
6034;BME280;3045;43.226;27.858;2023-04-01T04:38:59;44807.00;;;10.57;100.00
6034;BME280;3045;43.226;27.858;2023-04-01T04:41:28;58153.53;;;10.99;100.00
6034;BME280;3045;43.226;27.858;2023-04-01T04:43:56;65355.03;;;11.31;100.00
6034;BME280;3045;43.226;27.858;2023-04-01T04:46:24;72891.94;;;11.52;100.00
6034;BME280;3045;43.226;27.858;2023-04-01T04:48:51;83401.25;;;11.72;100.00
6034;BME280;3045;43.226;27.858;2023-04-01T04:51:19;99572.56;;;12.04;100.00
6034;BME280;3045;43.226;27.858;2023-04-01T04:53:47;138188.88;;;12.19;100.00
6034;BME280;3045;43.226;27.858;2023-04-01T04:56:19;149191.75;;;12.54;100.00
6034;BME280;3045;43.226;27.858;2023-04-01T04:58:46;149381.75;;;13.30;100.00
6034;BME280;3045;43.226;27.858;2023-04-01T05:01:15;149495.75;;;13.76;100.00
6034;BME280;3045;43.226;27.858;2023-04-01T05:03:42;149568.03;;;14.04;100.00
6034;BME280;3045;43.226;27.858;2023-04-01T05:06:11;149418.50;;;13.45;100.00
6034;BME280;3045;43.226;27.858;2023-04-01T05:08:39;149348.81;;;13.17;100.00
6034;BME280;3045;43.226;27.858;2023-04-01T05:11:07;149306.97;;;13.00;100.00
6034;BME280;3045;43.226;27.858;2023-04-01T05:13:37;149284.16;;;12.91;100.00
6034;BME280;3045;43.226;27.858;2023-04-01T05:16:08;149284.16;;;12.91;100.00
6034;BME280;3045;43.226;27.858;2023-04-01T05:18:35;149261.34;;;12.82;100.00
6034;BME280;3045;43.226;27.858;2023-04-01T05:21:02;149214.53;;;12.63;100.00
6034;BME280;3045;43.226;27.858;2023-04-01T05:23:31;149184.16;;;12.51;100.00
6034;BME280;3045;43.226;27.858;2023-04-01T05:25:58;149174.03;;;12.47;100.00
6034;BME280;3045;43.226;27.858;2023-04-01T05:28:28;149195.56;;;12.56;100.00
6034;BME280;3045;43.226;27.858;2023-04-01T05:31:00;149170.22;;;12.46;100.00
6034;BME280;3045;43.226;27.858;2023-04-01T05:33:27;149149.97;;;12.38;100.00
6034;BME280;3045;43.226;27.858;2023-04-01T05:35:55;149172.75;;;12.47;100.00
6034;BME280;3045;43.226;27.858;2023-04-01T05:38:22;149204.41;;;12.59;100.00
6034;BME280;3045;43.226;27.858;2023-04-01T05:40:49;149275.31;;;12.88;100.00
6034;BME280;3045;43.226;27.858;2023-04-01T05:43:16;149295.56;;;12.96;100.00
6034;BME280;3045;43.226;27.858;2023-04-01T05:45:43;149413.41;;;13.43;100.00
6034;BME280;3045;43.226;27.858;2023-04-01T05:48:12;149464.09;;;13.63;100.00
6034;BME280;3045;43.226;27.858;2023-04-01T05:50:41;149546.50;;;13.96;100.00
6034;BME280;3045;43.226;27.858;2023-04-01T05:53:08;149675.78;;;14.47;100.00
6034;BME280;3045;43.226;27.858;2023-04-01T05:55:35;149797.56;;;14.96;100.00
6034;BME280;3045;43.226;27.858;2023-04-01T05:58:02;149977.75;;;15.68;100.00
6034;BME280;3045;43.226;27.858;2023-04-01T06:00:30;150097.09;;;16.15;100.00
6034;BME280;3045;43.226;27.858;2023-04-01T06:02:58;150233.00;;;16.69;100.00
6034;BME280;3045;43.226;27.858;2023-04-01T06:05:28;150288.88;;;16.92;100.00
6034;BME280;3045;43.226;27.858;2023-04-01T06:07:58;150266.00;;;16.82;100.00
6034;BME280;3045;43.226;27.858;2023-04-01T06:10:36;150131.38;;;16.29;100.00
6034;BME280;3045;43.226;27.858;2023-04-01T06:13:07;150039.94;;;15.92;100.00
6034;BME280;3045;43.226;27.858;2023-04-01T06:15:41;150017.09;;;15.83;100.00
6034;BME280;3045;43.226;27.858;2023-04-01T06:18:43;150014.59;;;15.82;100.00
6034;BME280;3045;43.226;27.858;2023-04-01T06:21:28;150041.22;;;15.93;100.00
6034;BME280;3045;43.226;27.858;2023-04-01T06:24:11;150042.50;;;15.93;100.00
6034;BME280;3045;43.226;27.858;2023-04-01T06:26:49;149958.72;;;15.60;100.00
6034;BME280;3045;43.226;27.858;2023-04-01T06:29:40;149921.88;;;15.45;100.00
6034;BME280;3045;43.226;27.858;2023-04-01T06:32:23;149930.75;;;15.49;100.00
6034;BME280;3045;43.226;27.858;2023-04-01T06:38:20;149921.88;;;15.45;100.00
6034;BME280;3045;43.226;27.858;2023-04-01T06:43:59;149877.44;;;15.28;100.00
6034;BME280;3045;43.226;27.858;2023-04-01T06:46:38;149885.09;;;15.31;100.00
6034;BME280;3045;43.226;27.858;2023-04-01T06:49:41;149920.59;;;15.45;100.00
6034;BME280;3045;43.226;27.858;2023-04-01T06:52:19;149987.91;;;15.72;100.00
6034;BME280;3045;43.226;27.858;2023-04-01T06:54:55;150006.94;;;15.79;100.00
6034;BME280;3045;43.226;27.858;2023-04-01T06:57:31;150117.41;;;16.23;100.00
6034;BME280;3045;43.226;27.858;2023-04-01T07:00:03;150196.13;;;16.55;100.00
6034;BME280;3045;43.226;27.858;2023-04-01T07:02:36;150210.13;;;16.60;100.00
6034;BME280;3045;43.226;27.858;2023-04-01T07:05:07;150156.72;;;16.39;100.00
6034;BME280;3045;43.226;27.858;2023-04-01T07:07:39;150036.16;;;15.91;100.00
6034;BME280;3045;43.226;27.858;2023-04-01T07:10:16;150031.06;;;15.89;100.00
6034;BME280;3045;43.226;27.858;2023-04-01T07:12:47;150108.50;;;16.20;100.00
6034;BME280;3045;43.226;27.858;2023-04-01T07:15:19;150163.13;;;16.41;100.00
6034;BME280;3045;43.226;27.858;2023-04-01T07:17:50;150194.84;;;16.54;100.00
6034;BME280;3045;43.226;27.858;2023-04-01T07:20:24;150161.84;;;16.41;100.00
6034;BME280;3045;43.226;27.858;2023-04-01T07:22:55;150206.34;;;16.59;100.00
6034;BME280;3045;43.226;27.858;2023-04-01T07:25:27;150271.13;;;16.84;100.00
6034;BME280;3045;43.226;27.858;2023-04-01T07:28:00;150095.81;;;16.15;100.00
6034;BME280;3045;43.226;27.858;2023-04-01T07:30:38;150123.72;;;16.26;100.00
6034;BME280;3045;43.226;27.858;2023-04-01T07:33:14;150159.28;;;16.40;100.00
6034;BME280;3045;43.226;27.858;2023-04-01T07:35:47;150193.59;;;16.54;100.00
6034;BME280;3045;43.226;27.858;2023-04-01T07:38:28;150213.94;;;16.62;100.00
6034;BME280;3045;43.226;27.858;2023-04-01T07:41:07;150216.50;;;16.63;100.00
6034;BME280;3045;43.226;27.858;2023-04-01T07:43:48;150222.81;;;16.65;100.00
6034;BME280;3045;43.226;27.858;2023-04-01T07:46:27;150039.94;;;15.92;100.00
6034;BME280;3045;43.226;27.858;2023-04-01T07:49:02;150009.50;;;15.80;100.00
6034;BME280;3045;43.226;27.858;2023-04-01T07:51:35;149924.41;;;15.46;100.00
6034;BME280;3045;43.226;27.858;2023-04-01T07:54:09;150024.75;;;15.86;100.00
6034;BME280;3045;43.226;27.858;2023-04-01T07:56:45;150065.34;;;16.03;100.00
6034;BME280;3045;43.226;27.858;2023-04-01T07:59:20;150028.50;;;15.88;100.00
6034;BME280;3045;43.226;27.858;2023-04-01T08:01:55;149986.63;;;15.71;100.00
6034;BME280;3045;43.226;27.858;2023-04-01T08:04:38;149965.06;;;15.63;100.00
6034;BME280;3045;43.226;27.858;2023-04-01T08:07:11;150060.25;;;16.00;100.00
6034;BME280;3045;43.226;27.858;2023-04-01T08:09:45;150141.53;;;16.33;100.00
6034;BME280;3045;43.226;27.858;2023-04-01T08:12:27;150233.00;;;16.69;100.00
6034;BME280;3045;43.226;27.858;2023-04-01T08:15:08;150163.13;;;16.41;100.00
6034;BME280;3045;43.226;27.858;2023-04-01T08:17:45;150243.16;;;16.73;100.00
6034;BME280;3045;43.226;27.858;2023-04-01T08:20:23;150282.50;;;16.89;100.00
6034;BME280;3045;43.226;27.858;2023-04-01T08:22:58;150343.50;;;17.13;100.00
6034;BME280;3045;43.226;27.858;2023-04-01T08:25:28;150474.41;;;17.65;100.00
6034;BME280;3045;43.226;27.858;2023-04-01T08:28:00;150454.03;;;17.57;100.00
6034;BME280;3045;43.226;27.858;2023-04-01T08:30:36;150442.59;;;17.53;100.00
6034;BME280;3045;43.226;27.858;2023-04-01T08:33:11;150456.63;;;17.58;100.00
6034;BME280;3045;43.226;27.858;2023-04-01T08:35:42;150507.47;;;17.78;100.00
6034;BME280;3045;43.226;27.858;2023-04-01T08:38:17;150573.56;;;18.05;100.00
6034;BME280;3045;43.226;27.858;2023-04-01T08:41:26;150769.47;;;18.83;100.00
6034;BME280;3045;43.226;27.858;2023-04-01T08:47:39;150923.44;;;19.44;100.00
6034;BME280;3045;43.226;27.858;2023-04-01T08:50:26;150989.63;;;19.70;100.00
6034;BME280;3045;43.226;27.858;2023-04-01T08:53:03;150896.69;;;19.33;100.00
6034;BME280;3045;43.226;27.858;2023-04-01T08:55:40;150927.28;;;19.45;100.00
6034;BME280;3045;43.226;27.858;2023-04-01T09:01:15;151138.63;;;20.29;100.00
6034;BME280;3045;43.226;27.858;2023-04-01T09:04:18;151113.13;;;20.19;100.00
6034;BME280;3045;43.226;27.858;2023-04-01T09:06:55;151159.00;;;20.37;100.00
6034;BME280;3045;43.226;27.858;2023-04-01T09:09:47;151164.09;;;20.39;100.00
6034;BME280;3045;43.226;27.858;2023-04-01T09:12:33;151153.91;;;20.35;100.00
6034;BME280;3045;43.226;27.858;2023-04-01T09:15:23;151142.47;;;20.31;100.00
6034;BME280;3045;43.226;27.858;2023-04-01T09:21:15;151115.66;;;20.20;100.00
6034;BME280;3045;43.226;27.858;2023-04-01T09:27:04;151054.56;;;19.96;100.00
6034;BME280;3045;43.226;27.858;2023-04-01T09:29:51;151030.34;;;19.86;100.00
6034;BME280;3045;43.226;27.858;2023-04-01T09:32:40;151029.13;;;19.86;100.00
6034;BME280;3045;43.226;27.858;2023-04-01T09:35:30;151034.19;;;19.88;100.00
6034;BME280;3045;43.226;27.858;2023-04-01T09:38:20;151006.19;;;19.77;100.00
6034;BME280;3045;43.226;27.858;2023-04-01T09:40:55;151016.38;;;19.81;100.00
6034;BME280;3045;43.226;27.858;2023-04-01T09:43:27;150996.03;;;19.73;100.00
6034;BME280;3045;43.226;27.858;2023-04-01T09:46:06;151029.13;;;19.86;100.00
6034;BME280;3045;43.226;27.858;2023-04-01T09:48:46;151025.28;;;19.84;100.00
6034;BME280;3045;43.226;27.858;2023-04-01T09:51:26;151026.56;;;19.85;100.00
6034;BME280;3045;43.226;27.858;2023-04-01T09:54:08;151072.34;;;20.03;100.00
6034;BME280;3045;43.226;27.858;2023-04-01T09:57:13;151159.00;;;20.37;100.00
6034;BME280;3045;43.226;27.858;2023-04-01T10:00:20;151234.13;;;20.67;100.00
6034;BME280;3045;43.226;27.858;2023-04-01T10:03:30;151301.66;;;20.94;100.00
6034;BME280;3045;43.226;27.858;2023-04-01T10:15:23;151240.53;;;20.70;100.00
6034;BME280;3045;43.226;27.858;2023-04-01T10:27:28;151085.09;;;20.08;100.00
6034;BME280;3045;43.226;27.858;2023-04-01T10:30:38;151102.94;;;20.15;100.00
6034;BME280;3045;43.226;27.858;2023-04-01T10:36:41;151081.31;;;20.06;100.00
6034;BME280;3045;43.226;27.858;2023-04-01T10:46:10;151059.66;;;19.98;100.00
6034;BME280;3045;43.226;27.858;2023-04-01T10:55:04;151122.03;;;20.23;100.00
6034;BME280;3045;43.226;27.858;2023-04-01T10:58:02;151145.03;;;20.32;100.00
6034;BME280;3045;43.226;27.858;2023-04-01T11:04:09;151187.03;;;20.48;100.00
6034;BME280;3045;43.226;27.858;2023-04-01T11:07:19;151192.09;;;20.50;100.00
6034;BME280;3045;43.226;27.858;2023-04-01T11:13:29;151119.50;;;20.22;100.00
6034;BME280;3045;43.226;27.858;2023-04-01T11:22:35;151013.81;;;19.80;100.00
6034;BME280;3045;43.226;27.858;2023-04-01T11:25:20;150996.03;;;19.73;100.00
6034;BME280;3045;43.226;27.858;2023-04-01T11:28:35;150978.16;;;19.66;100.00
6034;BME280;3045;43.226;27.858;2023-04-01T11:31:35;150998.53;;;19.74;100.00
6034;BME280;3045;43.226;27.858;2023-04-01T11:34:14;150976.88;;;19.65;100.00
6034;BME280;3045;43.226;27.858;2023-04-01T11:36:52;150895.41;;;19.33;100.00
6034;BME280;3045;43.226;27.858;2023-04-01T11:39:33;150829.25;;;19.06;100.00
6034;BME280;3045;43.226;27.858;2023-04-01T11:42:12;150816.50;;;19.01;100.00
6034;BME280;3045;43.226;27.858;2023-04-01T11:44:53;150677.81;;;18.46;100.00
6034;BME280;3045;43.226;27.858;2023-04-01T11:47:51;150702.03;;;18.56;100.00
6034;BME280;3045;43.226;27.858;2023-04-01T11:50:31;150759.28;;;18.79;100.00
6034;BME280;3045;43.226;27.858;2023-04-01T11:53:21;150772.03;;;18.84;100.00
6034;BME280;3045;43.226;27.858;2023-04-01T11:56:09;150728.78;;;18.66;100.00
6034;BME280;3045;43.226;27.858;2023-04-01T12:01:58;150772.03;;;18.84;100.00
6034;BME280;3045;43.226;27.858;2023-04-01T12:07:49;150780.91;;;18.87;100.00
6034;BME280;3045;43.226;27.858;2023-04-01T12:10:21;150858.50;;;19.18;100.00
6034;BME280;3045;43.226;27.858;2023-04-01T12:12:54;150869.94;;;19.23;100.00
6034;BME280;3045;43.226;27.858;2023-04-01T12:15:31;150911.94;;;19.39;100.00
6034;BME280;3045;43.226;27.858;2023-04-01T12:18:14;150968.00;;;19.61;100.00
6034;BME280;3045;43.226;27.858;2023-04-01T12:20:49;150990.91;;;19.71;100.00
6034;BME280;3045;43.226;27.858;2023-04-01T12:23:47;151020.16;;;19.82;100.00
6034;BME280;3045;43.226;27.858;2023-04-01T12:26:35;151086.38;;;20.08;100.00
6034;BME280;3045;43.226;27.858;2023-04-01T12:29:17;151153.91;;;20.35;100.00
6034;BME280;3045;43.226;27.858;2023-04-01T12:31:51;151187.03;;;20.48;100.00
6034;BME280;3045;43.226;27.858;2023-04-01T12:34:49;151176.84;;;20.44;100.00
6034;BME280;3045;43.226;27.858;2023-04-01T12:37:29;151113.13;;;20.19;100.00
6034;BME280;3045;43.226;27.858;2023-04-01T12:40:31;151048.19;;;19.93;100.00
6034;BME280;3045;43.226;27.858;2023-04-01T12:43:25;151034.19;;;19.88;100.00
6034;BME280;3045;43.226;27.858;2023-04-01T12:46:03;150962.94;;;19.59;100.00
6034;BME280;3045;43.226;27.858;2023-04-01T12:48:56;150931.09;;;19.47;100.00
6034;BME280;3045;43.226;27.858;2023-04-01T12:51:55;150883.97;;;19.28;100.00
6034;BME280;3045;43.226;27.858;2023-04-01T12:58:08;150763.09;;;18.80;100.00
6034;BME280;3045;43.226;27.858;2023-04-01T13:01:02;150800.00;;;18.95;100.00
6034;BME280;3045;43.226;27.858;2023-04-01T13:06:50;150730.06;;;18.67;100.00
6034;BME280;3045;43.226;27.858;2023-04-01T13:09:31;150647.31;;;18.34;100.00
6034;BME280;3045;43.226;27.858;2023-04-01T13:12:25;150649.88;;;18.35;100.00
6034;BME280;3045;43.226;27.858;2023-04-01T13:15:12;150663.88;;;18.41;100.00
6034;BME280;3045;43.226;27.858;2023-04-01T13:17:45;150646.03;;;18.34;100.00
6034;BME280;3045;43.226;27.858;2023-04-01T13:20:23;150639.69;;;18.31;100.00
6034;BME280;3045;43.226;27.858;2023-04-01T13:23:01;150634.59;;;18.29;100.00
6034;BME280;3045;43.226;27.858;2023-04-01T13:25:38;150565.97;;;18.02;100.00
6034;BME280;3045;43.226;27.858;2023-04-01T13:28:14;150562.13;;;18.00;100.00
6034;BME280;3045;43.226;27.858;2023-04-01T13:30:47;150555.78;;;17.98;100.00
6034;BME280;3045;43.226;27.858;2023-04-01T13:33:21;150587.56;;;18.10;100.00
6034;BME280;3045;43.226;27.858;2023-04-01T13:36:02;150616.78;;;18.22;100.00
6034;BME280;3045;43.226;27.858;2023-04-01T13:38:48;150601.56;;;18.16;100.00
6034;BME280;3045;43.226;27.858;2023-04-01T13:41:33;150614.25;;;18.21;100.00
6034;BME280;3045;43.226;27.858;2023-04-01T13:44:09;150632.06;;;18.28;100.00
6034;BME280;3045;43.226;27.858;2023-04-01T13:46:51;150618.06;;;18.22;100.00
6034;BME280;3045;43.226;27.858;2023-04-01T13:49:41;150606.63;;;18.18;100.00
6034;BME280;3045;43.226;27.858;2023-04-01T13:55:35;150707.16;;;18.58;100.00
6034;BME280;3045;43.226;27.858;2023-04-01T13:58:26;150716.06;;;18.61;100.00
6034;BME280;3045;43.226;27.858;2023-04-01T14:01:05;150726.22;;;18.65;100.00
6034;BME280;3045;43.226;27.858;2023-04-01T14:03:56;150718.59;;;18.62;100.00
6034;BME280;3045;43.226;27.858;2023-04-01T14:06:38;150718.59;;;18.62;100.00
6034;BME280;3045;43.226;27.858;2023-04-01T14:09:25;150761.84;;;18.80;100.00
6034;BME280;3045;43.226;27.858;2023-04-01T14:12:04;150710.94;;;18.59;100.00
6034;BME280;3045;43.226;27.858;2023-04-01T14:14:46;150560.84;;;18.00;100.00
6034;BME280;3045;43.226;27.858;2023-04-01T14:17:26;150517.63;;;17.83;100.00
6034;BME280;3045;43.226;27.858;2023-04-01T14:20:25;150243.16;;;16.73;100.00
6034;BME280;3045;43.226;27.858;2023-04-01T14:23:06;150249.53;;;16.76;100.00
6034;BME280;3045;43.226;27.858;2023-04-01T14:25:47;150230.44;;;16.68;100.00
6034;BME280;3045;43.226;27.858;2023-04-01T14:28:27;150180.88;;;16.49;100.00
6034;BME280;3045;43.226;27.858;2023-04-01T14:31:16;150163.13;;;16.41;100.00
6034;BME280;3045;43.226;27.858;2023-04-01T14:33:53;150132.66;;;16.29;100.00
6034;BME280;3045;43.226;27.858;2023-04-01T14:36:45;150108.50;;;16.20;100.00
6034;BME280;3045;43.226;27.858;2023-04-01T14:39:43;150108.50;;;16.20;100.00
6034;BME280;3045;43.226;27.858;2023-04-01T14:42:28;150109.78;;;16.20;100.00
6034;BME280;3045;43.226;27.858;2023-04-01T14:45:29;150075.50;;;16.07;100.00
6034;BME280;3045;43.226;27.858;2023-04-01T14:48:15;150117.41;;;16.23;100.00
6034;BME280;3045;43.226;27.858;2023-04-01T14:50:46;150065.34;;;16.03;100.00
6034;BME280;3045;43.226;27.858;2023-04-01T14:53:26;150055.19;;;15.98;100.00
6034;BME280;3045;43.226;27.858;2023-04-01T14:55:54;150091.97;;;16.13;100.00
6034;BME280;3045;43.226;27.858;2023-04-01T14:58:23;150083.09;;;16.10;100.00
6034;BME280;3045;43.226;27.858;2023-04-01T15:01:06;150043.78;;;15.94;100.00
6034;BME280;3045;43.226;27.858;2023-04-01T15:03:40;150000.63;;;15.77;100.00
6034;BME280;3045;43.226;27.858;2023-04-01T15:06:32;150013.31;;;15.82;100.00
6034;BME280;3045;43.226;27.858;2023-04-01T15:09:07;150014.59;;;15.82;100.00